sensor_id;sensor_type;location;lat;lon;timestamp;temperature;humidity
10129;DHT22;5104;50.720;7.044;2023-03-08T00:00:34;2.40;99.90
10129;DHT22;5104;50.720;7.044;2023-03-08T00:03:01;2.40;99.90
10129;DHT22;5104;50.720;7.044;2023-03-08T00:05:28;2.40;99.90
10129;DHT22;5104;50.720;7.044;2023-03-08T00:07:55;2.40;99.90
10129;DHT22;5104;50.720;7.044;2023-03-08T00:10:22;2.40;99.90
10129;DHT22;5104;50.720;7.044;2023-03-08T00:12:50;2.40;99.90
10129;DHT22;5104;50.720;7.044;2023-03-08T00:15:16;2.40;99.90
10129;DHT22;5104;50.720;7.044;2023-03-08T00:17:45;2.40;99.90
10129;DHT22;5104;50.720;7.044;2023-03-08T00:20:12;2.40;99.90
10129;DHT22;5104;50.720;7.044;2023-03-08T00:22:40;2.40;99.90
10129;DHT22;5104;50.720;7.044;2023-03-08T00:25:09;2.30;99.90
10129;DHT22;5104;50.720;7.044;2023-03-08T00:27:36;2.40;99.90
10129;DHT22;5104;50.720;7.044;2023-03-08T00:30:04;2.30;99.90
10129;DHT22;5104;50.720;7.044;2023-03-08T00:32:31;2.30;99.90
10129;DHT22;5104;50.720;7.044;2023-03-08T00:35:00;2.30;99.90
10129;DHT22;5104;50.720;7.044;2023-03-08T00:37:26;2.30;99.90
10129;DHT22;5104;50.720;7.044;2023-03-08T00:39:55;2.40;99.90
10129;DHT22;5104;50.720;7.044;2023-03-08T00:42:23;2.40;99.90
10129;DHT22;5104;50.720;7.044;2023-03-08T00:44:50;2.40;99.90
10129;DHT22;5104;50.720;7.044;2023-03-08T00:47:17;2.40;99.90
10129;DHT22;5104;50.720;7.044;2023-03-08T00:49:44;2.40;99.90
10129;DHT22;5104;50.720;7.044;2023-03-08T00:52:12;2.40;99.90
10129;DHT22;5104;50.720;7.044;2023-03-08T00:54:39;2.40;99.90
10129;DHT22;5104;50.720;7.044;2023-03-08T00:57:06;2.40;99.90
10129;DHT22;5104;50.720;7.044;2023-03-08T00:59:33;2.40;99.90
10129;DHT22;5104;50.720;7.044;2023-03-08T01:02:00;2.40;99.90
10129;DHT22;5104;50.720;7.044;2023-03-08T01:04:27;2.30;99.90
10129;DHT22;5104;50.720;7.044;2023-03-08T01:06:54;2.30;99.90
10129;DHT22;5104;50.720;7.044;2023-03-08T01:09:22;2.30;99.90
10129;DHT22;5104;50.720;7.044;2023-03-08T01:11:49;2.30;99.90
10129;DHT22;5104;50.720;7.044;2023-03-08T01:14:16;2.30;99.90
10129;DHT22;5104;50.720;7.044;2023-03-08T01:16:43;2.30;99.90
10129;DHT22;5104;50.720;7.044;2023-03-08T01:19:10;2.30;99.90
10129;DHT22;5104;50.720;7.044;2023-03-08T01:21:37;2.30;99.90
10129;DHT22;5104;50.720;7.044;2023-03-08T01:24:04;2.20;99.90
10129;DHT22;5104;50.720;7.044;2023-03-08T01:26:33;2.30;99.90
10129;DHT22;5104;50.720;7.044;2023-03-08T01:29:00;2.20;99.90
10129;DHT22;5104;50.720;7.044;2023-03-08T01:31:28;2.30;99.90
10129;DHT22;5104;50.720;7.044;2023-03-08T01:33:56;2.20;99.90
10129;DHT22;5104;50.720;7.044;2023-03-08T01:36:25;2.20;99.90
10129;DHT22;5104;50.720;7.044;2023-03-08T01:38:53;2.20;99.90
10129;DHT22;5104;50.720;7.044;2023-03-08T01:41:21;2.30;99.90
10129;DHT22;5104;50.720;7.044;2023-03-08T01:43:51;2.30;99.90
10129;DHT22;5104;50.720;7.044;2023-03-08T01:46:24;2.30;99.90
10129;DHT22;5104;50.720;7.044;2023-03-08T01:48:55;2.30;99.90
10129;DHT22;5104;50.720;7.044;2023-03-08T01:51:28;2.20;99.90
10129;DHT22;5104;50.720;7.044;2023-03-08T01:53:57;2.30;99.90
10129;DHT22;5104;50.720;7.044;2023-03-08T01:56:26;2.20;99.90
10129;DHT22;5104;50.720;7.044;2023-03-08T01:58:54;2.10;99.90
10129;DHT22;5104;50.720;7.044;2023-03-08T02:01:23;2.10;99.90
10129;DHT22;5104;50.720;7.044;2023-03-08T02:03:50;2.10;99.90
10129;DHT22;5104;50.720;7.044;2023-03-08T02:06:20;2.10;99.90
10129;DHT22;5104;50.720;7.044;2023-03-08T02:08:47;2.20;99.90
10129;DHT22;5104;50.720;7.044;2023-03-08T02:11:14;2.20;99.90
10129;DHT22;5104;50.720;7.044;2023-03-08T02:13:42;2.20;99.90
10129;DHT22;5104;50.720;7.044;2023-03-08T02:16:13;2.30;99.90
10129;DHT22;5104;50.720;7.044;2023-03-08T02:18:55;2.20;99.90
10129;DHT22;5104;50.720;7.044;2023-03-08T02:21:24;2.20;99.90
10129;DHT22;5104;50.720;7.044;2023-03-08T02:23:52;2.20;99.90
10129;DHT22;5104;50.720;7.044;2023-03-08T02:26:20;2.10;99.90
10129;DHT22;5104;50.720;7.044;2023-03-08T02:28:47;2.10;99.90
10129;DHT22;5104;50.720;7.044;2023-03-08T02:31:14;2.10;99.90
10129;DHT22;5104;50.720;7.044;2023-03-08T02:33:41;1.90;99.90
10129;DHT22;5104;50.720;7.044;2023-03-08T02:36:09;1.90;99.90
10129;DHT22;5104;50.720;7.044;2023-03-08T02:38:36;1.80;99.90
10129;DHT22;5104;50.720;7.044;2023-03-08T02:41:05;1.80;99.90
10129;DHT22;5104;50.720;7.044;2023-03-08T02:43:31;1.80;99.90
10129;DHT22;5104;50.720;7.044;2023-03-08T02:45:58;1.80;99.90
10129;DHT22;5104;50.720;7.044;2023-03-08T02:48:25;1.80;99.90
10129;DHT22;5104;50.720;7.044;2023-03-08T02:50:52;1.80;99.90
10129;DHT22;5104;50.720;7.044;2023-03-08T02:53:19;1.80;99.90
10129;DHT22;5104;50.720;7.044;2023-03-08T02:55:46;1.80;99.90
10129;DHT22;5104;50.720;7.044;2023-03-08T02:58:14;1.70;99.90
10129;DHT22;5104;50.720;7.044;2023-03-08T03:00:41;1.70;99.90
10129;DHT22;5104;50.720;7.044;2023-03-08T03:03:08;1.60;99.90
10129;DHT22;5104;50.720;7.044;2023-03-08T03:05:40;1.60;99.90
10129;DHT22;5104;50.720;7.044;2023-03-08T03:08:07;1.60;99.90
10129;DHT22;5104;50.720;7.044;2023-03-08T03:10:34;1.50;99.90
10129;DHT22;5104;50.720;7.044;2023-03-08T03:13:01;1.50;99.90
10129;DHT22;5104;50.720;7.044;2023-03-08T03:15:30;1.50;99.90
10129;DHT22;5104;50.720;7.044;2023-03-08T03:17:57;1.50;99.90
10129;DHT22;5104;50.720;7.044;2023-03-08T03:20:24;1.40;99.90
10129;DHT22;5104;50.720;7.044;2023-03-08T03:22:51;1.40;99.90
10129;DHT22;5104;50.720;7.044;2023-03-08T03:25:18;1.40;99.90
10129;DHT22;5104;50.720;7.044;2023-03-08T03:27:45;1.40;99.90
10129;DHT22;5104;50.720;7.044;2023-03-08T03:30:12;1.40;99.90
10129;DHT22;5104;50.720;7.044;2023-03-08T03:32:40;1.40;99.90
10129;DHT22;5104;50.720;7.044;2023-03-08T03:35:08;1.40;99.90
10129;DHT22;5104;50.720;7.044;2023-03-08T03:37:35;1.40;99.90
10129;DHT22;5104;50.720;7.044;2023-03-08T03:40:03;1.40;99.90
10129;DHT22;5104;50.720;7.044;2023-03-08T03:42:30;1.40;99.90
10129;DHT22;5104;50.720;7.044;2023-03-08T03:44:57;1.40;99.90
10129;DHT22;5104;50.720;7.044;2023-03-08T03:47:23;1.50;99.90
10129;DHT22;5104;50.720;7.044;2023-03-08T03:49:52;1.50;99.90
10129;DHT22;5104;50.720;7.044;2023-03-08T03:52:19;1.50;99.90
10129;DHT22;5104;50.720;7.044;2023-03-08T03:54:46;1.50;99.90
10129;DHT22;5104;50.720;7.044;2023-03-08T03:57:12;1.50;99.90
10129;DHT22;5104;50.720;7.044;2023-03-08T03:59:39;1.50;99.90
10129;DHT22;5104;50.720;7.044;2023-03-08T04:02:06;1.50;99.90
10129;DHT22;5104;50.720;7.044;2023-03-08T04:04:33;1.50;99.90
10129;DHT22;5104;50.720;7.044;2023-03-08T04:07:01;1.50;99.90
10129;DHT22;5104;50.720;7.044;2023-03-08T04:09:28;1.50;99.90
10129;DHT22;5104;50.720;7.044;2023-03-08T04:11:55;1.60;99.90
10129;DHT22;5104;50.720;7.044;2023-03-08T04:14:27;1.60;99.90
10129;DHT22;5104;50.720;7.044;2023-03-08T04:16:53;1.60;99.90
10129;DHT22;5104;50.720;7.044;2023-03-08T04:19:20;1.60;99.90
10129;DHT22;5104;50.720;7.044;2023-03-08T04:21:47;1.50;99.90
10129;DHT22;5104;50.720;7.044;2023-03-08T04:24:16;1.40;99.90
10129;DHT22;5104;50.720;7.044;2023-03-08T04:26:43;1.40;99.90
10129;DHT22;5104;50.720;7.044;2023-03-08T04:29:10;1.50;99.90
10129;DHT22;5104;50.720;7.044;2023-03-08T04:31:37;1.40;99.90
10129;DHT22;5104;50.720;7.044;2023-03-08T04:34:04;1.40;99.90
10129;DHT22;5104;50.720;7.044;2023-03-08T04:36:31;1.40;99.90
10129;DHT22;5104;50.720;7.044;2023-03-08T04:38:58;1.40;99.90
10129;DHT22;5104;50.720;7.044;2023-03-08T04:41:26;1.40;99.90
10129;DHT22;5104;50.720;7.044;2023-03-08T04:43:55;1.40;99.90
10129;DHT22;5104;50.720;7.044;2023-03-08T04:46:24;1.40;99.90
10129;DHT22;5104;50.720;7.044;2023-03-08T04:48:52;1.40;99.90
10129;DHT22;5104;50.720;7.044;2023-03-08T04:51:21;1.30;99.90
10129;DHT22;5104;50.720;7.044;2023-03-08T04:53:48;1.40;99.90
10129;DHT22;5104;50.720;7.044;2023-03-08T04:56:16;1.40;99.90
10129;DHT22;5104;50.720;7.044;2023-03-08T04:58:45;1.60;99.90
10129;DHT22;5104;50.720;7.044;2023-03-08T05:01:14;1.40;99.90
10129;DHT22;5104;50.720;7.044;2023-03-08T05:03:42;1.40;99.90
10129;DHT22;5104;50.720;7.044;2023-03-08T05:06:10;1.40;99.90
10129;DHT22;5104;50.720;7.044;2023-03-08T05:08:38;1.40;99.90
10129;DHT22;5104;50.720;7.044;2023-03-08T05:11:05;1.50;99.90
10129;DHT22;5104;50.720;7.044;2023-03-08T05:13:34;1.50;99.90
10129;DHT22;5104;50.720;7.044;2023-03-08T05:16:05;1.40;99.90
10129;DHT22;5104;50.720;7.044;2023-03-08T05:18:33;1.40;99.90
10129;DHT22;5104;50.720;7.044;2023-03-08T05:21:01;1.30;99.90
10129;DHT22;5104;50.720;7.044;2023-03-08T05:23:29;1.30;99.90
10129;DHT22;5104;50.720;7.044;2023-03-08T05:25:58;1.40;99.90
10129;DHT22;5104;50.720;7.044;2023-03-08T05:28:27;1.30;99.90
10129;DHT22;5104;50.720;7.044;2023-03-08T05:30:59;1.40;99.90
10129;DHT22;5104;50.720;7.044;2023-03-08T05:33:28;1.40;99.90
10129;DHT22;5104;50.720;7.044;2023-03-08T05:35:55;1.50;99.90
10129;DHT22;5104;50.720;7.044;2023-03-08T05:38:23;1.40;99.90
10129;DHT22;5104;50.720;7.044;2023-03-08T05:40:50;1.40;99.90
10129;DHT22;5104;50.720;7.044;2023-03-08T05:43:17;1.40;99.90
10129;DHT22;5104;50.720;7.044;2023-03-08T05:45:53;1.40;99.90
10129;DHT22;5104;50.720;7.044;2023-03-08T05:48:20;1.40;99.90
10129;DHT22;5104;50.720;7.044;2023-03-08T05:50:49;1.40;99.90
10129;DHT22;5104;50.720;7.044;2023-03-08T05:53:15;1.40;99.90
10129;DHT22;5104;50.720;7.044;2023-03-08T05:55:42;1.40;99.90
10129;DHT22;5104;50.720;7.044;2023-03-08T05:58:09;1.40;99.90
10129;DHT22;5104;50.720;7.044;2023-03-08T06:00:36;1.40;99.90
10129;DHT22;5104;50.720;7.044;2023-03-08T06:03:03;1.40;99.90
10129;DHT22;5104;50.720;7.044;2023-03-08T06:05:30;1.40;99.90
10129;DHT22;5104;50.720;7.044;2023-03-08T06:07:59;1.50;99.90
10129;DHT22;5104;50.720;7.044;2023-03-08T06:10:26;1.50;99.90
10129;DHT22;5104;50.720;7.044;2023-03-08T06:12:54;1.50;99.90
10129;DHT22;5104;50.720;7.044;2023-03-08T06:15:21;1.40;99.90
10129;DHT22;5104;50.720;7.044;2023-03-08T06:17:51;1.40;99.90
10129;DHT22;5104;50.720;7.044;2023-03-08T06:20:18;1.30;99.90
10129;DHT22;5104;50.720;7.044;2023-03-08T06:22:48;1.40;99.90
10129;DHT22;5104;50.720;7.044;2023-03-08T06:25:16;1.40;99.90
10129;DHT22;5104;50.720;7.044;2023-03-08T06:27:43;1.40;99.90
10129;DHT22;5104;50.720;7.044;2023-03-08T06:30:11;1.40;99.90
10129;DHT22;5104;50.720;7.044;2023-03-08T06:32:38;1.40;99.90
10129;DHT22;5104;50.720;7.044;2023-03-08T06:35:06;1.40;99.90
10129;DHT22;5104;50.720;7.044;2023-03-08T06:37:35;1.40;99.90
10129;DHT22;5104;50.720;7.044;2023-03-08T06:40:03;1.40;99.90
10129;DHT22;5104;50.720;7.044;2023-03-08T06:42:32;1.50;99.90
10129;DHT22;5104;50.720;7.044;2023-03-08T06:45:02;1.50;99.90
10129;DHT22;5104;50.720;7.044;2023-03-08T06:47:29;1.60;99.90
10129;DHT22;5104;50.720;7.044;2023-03-08T06:49:56;1.60;99.90
10129;DHT22;5104;50.720;7.044;2023-03-08T06:52:23;1.50;99.90
10129;DHT22;5104;50.720;7.044;2023-03-08T06:54:50;1.60;99.90
10129;DHT22;5104;50.720;7.044;2023-03-08T06:57:17;1.60;99.90
10129;DHT22;5104;50.720;7.044;2023-03-08T06:59:45;1.80;99.90
10129;DHT22;5104;50.720;7.044;2023-03-08T07:02:12;1.80;99.90
10129;DHT22;5104;50.720;7.044;2023-03-08T07:04:39;1.90;99.90
10129;DHT22;5104;50.720;7.044;2023-03-08T07:07:06;1.80;99.90
10129;DHT22;5104;50.720;7.044;2023-03-08T07:09:33;1.80;99.90
10129;DHT22;5104;50.720;7.044;2023-03-08T07:12:00;1.70;99.90
10129;DHT22;5104;50.720;7.044;2023-03-08T07:14:27;1.80;99.90
10129;DHT22;5104;50.720;7.044;2023-03-08T07:16:55;1.80;99.90
10129;DHT22;5104;50.720;7.044;2023-03-08T07:19:22;1.90;99.90
10129;DHT22;5104;50.720;7.044;2023-03-08T07:21:49;1.90;99.90
10129;DHT22;5104;50.720;7.044;2023-03-08T07:24:16;2.00;99.90
10129;DHT22;5104;50.720;7.044;2023-03-08T07:26:43;2.00;99.90
10129;DHT22;5104;50.720;7.044;2023-03-08T07:29:10;2.10;99.90
10129;DHT22;5104;50.720;7.044;2023-03-08T07:31:37;2.10;99.90
10129;DHT22;5104;50.720;7.044;2023-03-08T07:34:05;2.10;99.90
10129;DHT22;5104;50.720;7.044;2023-03-08T07:36:32;2.20;99.90
10129;DHT22;5104;50.720;7.044;2023-03-08T07:38:59;2.20;99.90
10129;DHT22;5104;50.720;7.044;2023-03-08T07:41:26;2.10;99.90
10129;DHT22;5104;50.720;7.044;2023-03-08T07:43:56;2.20;99.90
10129;DHT22;5104;50.720;7.044;2023-03-08T07:46:23;2.10;99.90
10129;DHT22;5104;50.720;7.044;2023-03-08T07:48:51;2.20;99.90
10129;DHT22;5104;50.720;7.044;2023-03-08T07:51:19;2.20;99.90
10129;DHT22;5104;50.720;7.044;2023-03-08T07:53:46;2.20;99.90
10129;DHT22;5104;50.720;7.044;2023-03-08T07:56:13;2.20;99.90
10129;DHT22;5104;50.720;7.044;2023-03-08T07:58:40;2.30;99.90
10129;DHT22;5104;50.720;7.044;2023-03-08T08:01:08;2.30;99.90
10129;DHT22;5104;50.720;7.044;2023-03-08T08:03:35;2.30;99.90
10129;DHT22;5104;50.720;7.044;2023-03-08T08:06:04;2.30;99.90
10129;DHT22;5104;50.720;7.044;2023-03-08T08:08:32;2.30;99.90
10129;DHT22;5104;50.720;7.044;2023-03-08T08:11:00;2.40;99.90
10129;DHT22;5104;50.720;7.044;2023-03-08T08:13:27;2.40;99.90
10129;DHT22;5104;50.720;7.044;2023-03-08T08:15:57;2.50;99.90
10129;DHT22;5104;50.720;7.044;2023-03-08T08:18:25;2.60;99.90
10129;DHT22;5104;50.720;7.044;2023-03-08T08:20:59;2.60;99.90
10129;DHT22;5104;50.720;7.044;2023-03-08T08:23:26;2.60;99.90
10129;DHT22;5104;50.720;7.044;2023-03-08T08:25:55;2.70;99.90
10129;DHT22;5104;50.720;7.044;2023-03-08T08:28:24;2.80;99.90
10129;DHT22;5104;50.720;7.044;2023-03-08T08:30:55;2.70;99.90
10129;DHT22;5104;50.720;7.044;2023-03-08T08:33:22;2.70;99.90
10129;DHT22;5104;50.720;7.044;2023-03-08T08:35:51;2.60;99.90
10129;DHT22;5104;50.720;7.044;2023-03-08T08:38:18;2.50;99.90
10129;DHT22;5104;50.720;7.044;2023-03-08T08:40:45;2.30;99.90
10129;DHT22;5104;50.720;7.044;2023-03-08T08:43:14;2.40;99.90
10129;DHT22;5104;50.720;7.044;2023-03-08T08:45:53;2.50;99.90
10129;DHT22;5104;50.720;7.044;2023-03-08T08:48:21;2.60;99.90
10129;DHT22;5104;50.720;7.044;2023-03-08T08:50:48;2.70;99.90
10129;DHT22;5104;50.720;7.044;2023-03-08T08:53:15;2.90;99.90
10129;DHT22;5104;50.720;7.044;2023-03-08T08:55:42;3.00;99.90
10129;DHT22;5104;50.720;7.044;2023-03-08T08:58:09;3.10;99.90
10129;DHT22;5104;50.720;7.044;2023-03-08T09:00:41;2.80;99.90
10129;DHT22;5104;50.720;7.044;2023-03-08T09:03:08;2.70;99.90
10129;DHT22;5104;50.720;7.044;2023-03-08T09:05:38;2.70;99.90
10129;DHT22;5104;50.720;7.044;2023-03-08T09:08:06;2.80;99.90
10129;DHT22;5104;50.720;7.044;2023-03-08T09:10:35;2.90;99.90
10129;DHT22;5104;50.720;7.044;2023-03-08T09:13:02;3.00;99.90
10129;DHT22;5104;50.720;7.044;2023-03-08T09:15:30;3.00;99.90
10129;DHT22;5104;50.720;7.044;2023-03-08T09:17:58;3.00;99.90
10129;DHT22;5104;50.720;7.044;2023-03-08T09:20:26;2.90;99.90
10129;DHT22;5104;50.720;7.044;2023-03-08T09:22:53;3.00;99.90
10129;DHT22;5104;50.720;7.044;2023-03-08T09:25:20;3.00;99.90
10129;DHT22;5104;50.720;7.044;2023-03-08T09:27:49;3.10;99.90
10129;DHT22;5104;50.720;7.044;2023-03-08T09:30:16;3.20;99.90
10129;DHT22;5104;50.720;7.044;2023-03-08T09:32:43;3.30;99.90
10129;DHT22;5104;50.720;7.044;2023-03-08T09:35:12;3.40;99.90
10129;DHT22;5104;50.720;7.044;2023-03-08T09:37:40;3.50;99.90
10129;DHT22;5104;50.720;7.044;2023-03-08T09:40:20;3.50;99.90
10129;DHT22;5104;50.720;7.044;2023-03-08T09:42:48;3.50;99.90
10129;DHT22;5104;50.720;7.044;2023-03-08T09:45:23;3.50;99.90
10129;DHT22;5104;50.720;7.044;2023-03-08T09:47:57;3.40;99.90
10129;DHT22;5104;50.720;7.044;2023-03-08T09:50:37;3.30;99.90
10129;DHT22;5104;50.720;7.044;2023-03-08T09:53:13;3.20;99.90
10129;DHT22;5104;50.720;7.044;2023-03-08T09:55:47;3.20;99.90
10129;DHT22;5104;50.720;7.044;2023-03-08T09:58:23;3.20;99.90
10129;DHT22;5104;50.720;7.044;2023-03-08T10:00:54;3.20;99.90
10129;DHT22;5104;50.720;7.044;2023-03-08T10:03:45;3.20;99.90
10129;DHT22;5104;50.720;7.044;2023-03-08T10:06:28;3.30;99.90
10129;DHT22;5104;50.720;7.044;2023-03-08T10:09:01;3.40;99.90
10129;DHT22;5104;50.720;7.044;2023-03-08T10:11:34;3.60;99.90
10129;DHT22;5104;50.720;7.044;2023-03-08T10:14:07;3.70;99.90
10129;DHT22;5104;50.720;7.044;2023-03-08T10:16:42;3.80;99.90
10129;DHT22;5104;50.720;7.044;2023-03-08T10:19:15;4.00;99.90
10129;DHT22;5104;50.720;7.044;2023-03-08T10:21:46;3.90;99.90
10129;DHT22;5104;50.720;7.044;2023-03-08T10:24:17;4.10;99.90
10129;DHT22;5104;50.720;7.044;2023-03-08T10:26:49;4.10;99.90
10129;DHT22;5104;50.720;7.044;2023-03-08T10:29:16;3.90;99.90
10129;DHT22;5104;50.720;7.044;2023-03-08T10:31:43;3.60;99.90
10129;DHT22;5104;50.720;7.044;2023-03-08T10:34:14;3.70;99.90
10129;DHT22;5104;50.720;7.044;2023-03-08T10:36:51;3.90;99.90
10129;DHT22;5104;50.720;7.044;2023-03-08T10:39:20;3.80;99.90
10129;DHT22;5104;50.720;7.044;2023-03-08T10:41:48;4.10;99.90
10129;DHT22;5104;50.720;7.044;2023-03-08T10:44:29;4.20;99.90
10129;DHT22;5104;50.720;7.044;2023-03-08T10:46:57;4.10;99.90
10129;DHT22;5104;50.720;7.044;2023-03-08T10:49:25;4.10;99.90
10129;DHT22;5104;50.720;7.044;2023-03-08T10:51:57;4.20;99.90
10129;DHT22;5104;50.720;7.044;2023-03-08T10:54:25;4.00;99.90
10129;DHT22;5104;50.720;7.044;2023-03-08T10:56:55;4.10;99.90
10129;DHT22;5104;50.720;7.044;2023-03-08T10:59:26;4.20;99.90
10129;DHT22;5104;50.720;7.044;2023-03-08T11:01:59;4.20;99.90
10129;DHT22;5104;50.720;7.044;2023-03-08T11:04:28;4.20;99.90
10129;DHT22;5104;50.720;7.044;2023-03-08T11:06:57;4.30;99.90
10129;DHT22;5104;50.720;7.044;2023-03-08T11:09:25;4.20;99.90
10129;DHT22;5104;50.720;7.044;2023-03-08T11:11:53;4.30;99.90
10129;DHT22;5104;50.720;7.044;2023-03-08T11:14:21;4.30;99.90
10129;DHT22;5104;50.720;7.044;2023-03-08T11:17:10;4.50;99.90
10129;DHT22;5104;50.720;7.044;2023-03-08T11:19:45;4.30;99.90
10129;DHT22;5104;50.720;7.044;2023-03-08T11:22:24;4.60;99.90
10129;DHT22;5104;50.720;7.044;2023-03-08T11:25:06;4.90;99.90
10129;DHT22;5104;50.720;7.044;2023-03-08T11:27:50;5.00;99.90
10129;DHT22;5104;50.720;7.044;2023-03-08T11:30:27;5.10;99.90
10129;DHT22;5104;50.720;7.044;2023-03-08T11:36:01;5.40;99.90
10129;DHT22;5104;50.720;7.044;2023-03-08T11:38:32;5.50;99.90
10129;DHT22;5104;50.720;7.044;2023-03-08T11:41:07;5.50;99.90
10129;DHT22;5104;50.720;7.044;2023-03-08T11:43:55;6.10;99.90
10129;DHT22;5104;50.720;7.044;2023-03-08T11:46:31;6.00;99.90
10129;DHT22;5104;50.720;7.044;2023-03-08T11:49:17;6.10;99.90
10129;DHT22;5104;50.720;7.044;2023-03-08T11:51:51;6.30;99.90
10129;DHT22;5104;50.720;7.044;2023-03-08T11:54:37;6.20;99.90
10129;DHT22;5104;50.720;7.044;2023-03-08T11:57:08;6.30;99.90
10129;DHT22;5104;50.720;7.044;2023-03-08T11:59:39;6.00;99.90
10129;DHT22;5104;50.720;7.044;2023-03-08T12:02:14;6.10;99.90
10129;DHT22;5104;50.720;7.044;2023-03-08T12:04:48;6.20;99.90
10129;DHT22;5104;50.720;7.044;2023-03-08T12:07:22;6.80;99.90
10129;DHT22;5104;50.720;7.044;2023-03-08T12:09:55;6.60;99.90
10129;DHT22;5104;50.720;7.044;2023-03-08T12:12:28;6.80;99.90
10129;DHT22;5104;50.720;7.044;2023-03-08T12:15:04;6.60;99.90
10129;DHT22;5104;50.720;7.044;2023-03-08T12:17:35;6.40;99.90
10129;DHT22;5104;50.720;7.044;2023-03-08T12:20:04;6.80;99.90
10129;DHT22;5104;50.720;7.044;2023-03-08T12:22:43;6.10;99.90
10129;DHT22;5104;50.720;7.044;2023-03-08T12:25:23;6.20;99.90
10129;DHT22;5104;50.720;7.044;2023-03-08T12:27:56;6.10;99.90
10129;DHT22;5104;50.720;7.044;2023-03-08T12:30:38;6.10;99.90
10129;DHT22;5104;50.720;7.044;2023-03-08T12:33:10;6.10;99.90
10129;DHT22;5104;50.720;7.044;2023-03-08T12:35:49;6.60;99.90
10129;DHT22;5104;50.720;7.044;2023-03-08T12:38:41;6.50;99.90
10129;DHT22;5104;50.720;7.044;2023-03-08T12:41:23;6.30;99.90
10129;DHT22;5104;50.720;7.044;2023-03-08T12:44:04;6.10;99.90
10129;DHT22;5104;50.720;7.044;2023-03-08T12:46:47;6.40;99.90
10129;DHT22;5104;50.720;7.044;2023-03-08T12:49:20;6.20;99.90
10129;DHT22;5104;50.720;7.044;2023-03-08T12:51:57;6.00;99.90
10129;DHT22;5104;50.720;7.044;2023-03-08T12:54:29;6.20;99.90
10129;DHT22;5104;50.720;7.044;2023-03-08T12:56:59;6.60;99.90
10129;DHT22;5104;50.720;7.044;2023-03-08T12:59:32;6.90;99.90
10129;DHT22;5104;50.720;7.044;2023-03-08T13:02:21;7.00;99.90
10129;DHT22;5104;50.720;7.044;2023-03-08T13:04:49;7.40;99.90
10129;DHT22;5104;50.720;7.044;2023-03-08T13:07:29;7.60;99.90
10129;DHT22;5104;50.720;7.044;2023-03-08T13:10:03;7.50;99.90
10129;DHT22;5104;50.720;7.044;2023-03-08T13:12:58;7.20;99.90
10129;DHT22;5104;50.720;7.044;2023-03-08T13:15:27;6.80;99.90
10129;DHT22;5104;50.720;7.044;2023-03-08T13:18:01;7.00;99.90
10129;DHT22;5104;50.720;7.044;2023-03-08T13:20:49;6.80;99.90
10129;DHT22;5104;50.720;7.044;2023-03-08T13:23:26;6.90;99.90
10129;DHT22;5104;50.720;7.044;2023-03-08T13:26:05;6.60;99.90
10129;DHT22;5104;50.720;7.044;2023-03-08T13:28:41;6.80;99.90
10129;DHT22;5104;50.720;7.044;2023-03-08T13:31:13;6.60;99.90
10129;DHT22;5104;50.720;7.044;2023-03-08T13:33:42;6.30;99.90
10129;DHT22;5104;50.720;7.044;2023-03-08T13:36:17;6.40;99.90
10129;DHT22;5104;50.720;7.044;2023-03-08T13:38:57;6.60;99.90
10129;DHT22;5104;50.720;7.044;2023-03-08T13:41:32;6.50;99.90
10129;DHT22;5104;50.720;7.044;2023-03-08T13:44:02;6.40;99.90
10129;DHT22;5104;50.720;7.044;2023-03-08T13:46:30;6.40;99.90
10129;DHT22;5104;50.720;7.044;2023-03-08T13:48:57;6.20;99.90
10129;DHT22;5104;50.720;7.044;2023-03-08T13:51:27;6.00;99.90
10129;DHT22;5104;50.720;7.044;2023-03-08T13:53:55;6.00;99.90
10129;DHT22;5104;50.720;7.044;2023-03-08T13:56:24;6.00;99.90
10129;DHT22;5104;50.720;7.044;2023-03-08T13:58:53;6.00;99.90
10129;DHT22;5104;50.720;7.044;2023-03-08T14:01:29;5.70;99.90
10129;DHT22;5104;50.720;7.044;2023-03-08T14:03:56;5.70;99.90
10129;DHT22;5104;50.720;7.044;2023-03-08T14:06:27;5.80;99.90
10129;DHT22;5104;50.720;7.044;2023-03-08T14:08:55;5.80;99.90
10129;DHT22;5104;50.720;7.044;2023-03-08T14:11:28;5.80;99.90
10129;DHT22;5104;50.720;7.044;2023-03-08T14:13:56;5.70;99.90
10129;DHT22;5104;50.720;7.044;2023-03-08T14:16:29;5.70;99.90
10129;DHT22;5104;50.720;7.044;2023-03-08T14:18:59;5.60;99.90
10129;DHT22;5104;50.720;7.044;2023-03-08T14:21:27;5.60;99.90
10129;DHT22;5104;50.720;7.044;2023-03-08T14:23:56;5.60;99.90
10129;DHT22;5104;50.720;7.044;2023-03-08T14:26:31;5.80;99.90
10129;DHT22;5104;50.720;7.044;2023-03-08T14:29:10;5.70;99.90
10129;DHT22;5104;50.720;7.044;2023-03-08T14:31:49;5.90;99.90
10129;DHT22;5104;50.720;7.044;2023-03-08T14:34:18;5.80;99.90
10129;DHT22;5104;50.720;7.044;2023-03-08T14:36:52;5.90;99.90
10129;DHT22;5104;50.720;7.044;2023-03-08T14:39:20;5.90;99.90
10129;DHT22;5104;50.720;7.044;2023-03-08T14:41:49;5.80;99.90
10129;DHT22;5104;50.720;7.044;2023-03-08T14:44:19;5.80;99.90
10129;DHT22;5104;50.720;7.044;2023-03-08T14:46:48;5.80;99.90
10129;DHT22;5104;50.720;7.044;2023-03-08T14:49:24;5.80;99.90
10129;DHT22;5104;50.720;7.044;2023-03-08T14:51:52;5.80;99.90
10129;DHT22;5104;50.720;7.044;2023-03-08T14:54:28;5.80;99.90
10129;DHT22;5104;50.720;7.044;2023-03-08T14:56:57;5.80;99.90
10129;DHT22;5104;50.720;7.044;2023-03-08T14:59:24;5.70;99.90
10129;DHT22;5104;50.720;7.044;2023-03-08T15:01:53;5.70;99.90
10129;DHT22;5104;50.720;7.044;2023-03-08T15:04:22;5.70;99.90
10129;DHT22;5104;50.720;7.044;2023-03-08T15:06:51;5.60;99.90
10129;DHT22;5104;50.720;7.044;2023-03-08T15:09:20;5.60;99.90
10129;DHT22;5104;50.720;7.044;2023-03-08T15:11:49;5.60;99.90
10129;DHT22;5104;50.720;7.044;2023-03-08T15:14:17;5.70;99.90
10129;DHT22;5104;50.720;7.044;2023-03-08T15:16:44;5.70;99.90
10129;DHT22;5104;50.720;7.044;2023-03-08T15:19:12;5.70;99.90
10129;DHT22;5104;50.720;7.044;2023-03-08T15:21:39;5.70;99.90
10129;DHT22;5104;50.720;7.044;2023-03-08T15:24:13;5.70;99.90
10129;DHT22;5104;50.720;7.044;2023-03-08T15:26:42;5.60;99.90
10129;DHT22;5104;50.720;7.044;2023-03-08T15:29:23;5.50;99.90
10129;DHT22;5104;50.720;7.044;2023-03-08T15:31:51;5.50;99.90
10129;DHT22;5104;50.720;7.044;2023-03-08T15:34:20;5.40;99.90
10129;DHT22;5104;50.720;7.044;2023-03-08T15:36:48;5.50;99.90
10129;DHT22;5104;50.720;7.044;2023-03-08T15:39:15;5.50;99.90
10129;DHT22;5104;50.720;7.044;2023-03-08T15:41:42;5.60;99.90
10129;DHT22;5104;50.720;7.044;2023-03-08T15:44:09;5.70;99.90
10129;DHT22;5104;50.720;7.044;2023-03-08T15:46:36;5.80;99.90
10129;DHT22;5104;50.720;7.044;2023-03-08T15:49:04;5.70;99.90
10129;DHT22;5104;50.720;7.044;2023-03-08T15:51:34;5.60;99.90
10129;DHT22;5104;50.720;7.044;2023-03-08T15:54:02;5.70;99.90
10129;DHT22;5104;50.720;7.044;2023-03-08T15:56:30;5.70;99.90
10129;DHT22;5104;50.720;7.044;2023-03-08T15:58:57;5.70;99.90
10129;DHT22;5104;50.720;7.044;2023-03-08T16:01:25;5.70;99.90
10129;DHT22;5104;50.720;7.044;2023-03-08T16:03:54;5.80;99.90
10129;DHT22;5104;50.720;7.044;2023-03-08T16:06:23;5.80;99.90
10129;DHT22;5104;50.720;7.044;2023-03-08T16:08:52;5.90;99.90
10129;DHT22;5104;50.720;7.044;2023-03-08T16:11:19;5.90;99.90
10129;DHT22;5104;50.720;7.044;2023-03-08T16:13:51;6.00;99.90
10129;DHT22;5104;50.720;7.044;2023-03-08T16:16:19;6.00;99.90
10129;DHT22;5104;50.720;7.044;2023-03-08T16:18:46;6.00;99.90
10129;DHT22;5104;50.720;7.044;2023-03-08T16:21:13;6.00;99.90